Time;durP1;ratioP1;P1;durP2;ratioP2;P2;SDS_P1;SDS_P2;PMS_P1;PMS_P2;Temp;Humidity;BMP_temperature;BMP_pressure;BME280_temperature;BME280_humidity;BME280_pressure;Samples;Min_cycle;Max_cycle;Signal;HPM_P1;HPM_P2
2024/01/25 00:00:52;;;;;;;;;5.50;4.00;;;;;;;;5104630;27;61927;-74
2024/01/25 00:03:18;;;;;;;;;8.75;7.00;;;;;;;;5104417;27;61902;-75
2024/01/25 00:05:43;;;;;;;;;9.50;5.00;;;;;;;;5086822;27;62017;-74
2024/01/25 00:08:08;;;;;;;;;6.25;4.00;;;;;;;;5104573;27;62061;-75
2024/01/25 00:10:33;;;;;;;;;8.25;6.75;;;;;;;;5104947;27;61787;-75
2024/01/25 00:12:59;;;;;;;;;6.75;5.25;;;;;;;;5105799;27;62006;-75
2024/01/25 00:15:24;;;;;;;;;7.25;5.00;;;;;;;;5105131;27;61726;-75
2024/01/25 00:17:49;;;;;;;;;4.75;2.00;;;;;;;;5105697;27;62002;-74
2024/01/25 00:20:15;;;;;;;;;6.50;5.00;;;;;;;;5105669;27;61781;-75
2024/01/25 00:22:41;;;;;;;;;8.00;4.00;;;;;;;;5105319;27;61848;-74
2024/01/25 00:25:06;;;;;;;;;8.00;4.00;;;;;;;;5103760;27;63794;-75
2024/01/25 00:27:32;;;;;;;;;5.75;4.00;;;;;;;;5104094;27;61718;-74
2024/01/25 00:29:57;;;;;;;;;6.50;3.75;;;;;;;;5113652;27;61791;-74
2024/01/25 00:32:22;;;;;;;;;4.00;3.00;;;;;;;;5121664;27;40526;-75
2024/01/25 00:34:47;;;;;;;;;7.00;4.00;;;;;;;;5111018;27;61835;-74
2024/01/25 00:37:13;;;;;;;;;4.50;3.25;;;;;;;;5105332;27;61939;-75
2024/01/25 00:39:38;;;;;;;;;4.50;4.00;;;;;;;;5105551;27;62350;-75
2024/01/25 00:42:05;;;;;;;;;6.25;5.25;;;;;;;;5105654;27;62081;-75
2024/01/25 00:44:31;;;;;;;;;8.25;4.75;;;;;;;;5105030;27;63046;-74
2024/01/25 00:46:56;;;;;;;;;7.00;5.00;;;;;;;;5103800;27;61911;-75
2024/01/25 00:49:21;;;;;;;;;4.50;4.50;;;;;;;;5105246;27;61710;-75
2024/01/25 00:51:47;;;;;;;;;10.50;4.75;;;;;;;;5105820;27;61752;-74
2024/01/25 00:54:14;;;;;;;;;6.50;5.50;;;;;;;;5103125;27;63681;-75
2024/01/25 00:56:39;;;;;;;;;4.25;4.25;;;;;;;;5105071;27;61880;-75
2024/01/25 00:59:04;;;;;;;;;3.25;3.25;;;;;;;;5105142;27;61872;-75
2024/01/25 01:01:30;;;;;;;;;8.75;4.00;;;;;;;;5119524;27;61184;-75
2024/01/25 01:03:55;;;;;;;;;4.25;4.00;;;;;;;;5109869;27;41666;-75
2024/01/25 01:06:21;;;;;;;;;6.00;4.50;;;;;;;;5096157;28;61389;-74
2024/01/25 01:08:46;;;;;;;;;2.50;1.50;;;;;;;;5099522;28;61180;-74
2024/01/25 01:11:11;;;;;;;;;2.50;2.50;;;;;;;;5102872;28;37714;-74
2024/01/25 01:13:36;;;;;;;;;3.25;2.00;;;;;;;;5097605;28;62045;-75
2024/01/25 01:16:02;;;;;;;;;1.00;1.00;;;;;;;;5099247;27;61955;-75
2024/01/25 01:18:27;;;;;;;;;2.50;2.00;;;;;;;;5120835;27;61102;-75
2024/01/25 01:20:52;;;;;;;;;3.75;2.75;;;;;;;;5123385;27;38448;-75
2024/01/25 01:23:17;;;;;;;;;2.75;2.75;;;;;;;;5117845;27;61859;-74
2024/01/25 01:25:42;;;;;;;;;5.75;3.00;;;;;;;;5109936;27;61731;-74
2024/01/25 01:28:08;;;;;;;;;2.00;2.00;;;;;;;;5104771;27;61688;-75
2024/01/25 01:30:33;;;;;;;;;3.25;2.00;;;;;;;;5111263;27;61692;-75
2024/01/25 01:32:58;;;;;;;;;3.00;2.50;;;;;;;;5120546;27;39866;-74
2024/01/25 01:35:23;;;;;;;;;2.00;2.00;;;;;;;;5121863;27;61212;-75
2024/01/25 01:37:49;;;;;;;;;3.00;3.00;;;;;;;;5122497;27;38314;-75
2024/01/25 01:40:14;;;;;;;;;3.00;2.00;;;;;;;;5122920;27;37722;-74
2024/01/25 01:42:39;;;;;;;;;7.25;2.75;;;;;;;;5122471;27;38888;-75
2024/01/25 01:45:05;;;;;;;;;5.25;3.75;;;;;;;;5122706;27;37828;-75
2024/01/25 01:47:30;;;;;;;;;3.50;2.00;;;;;;;;5121148;27;37713;-74
2024/01/25 01:49:55;;;;;;;;;2.00;2.00;;;;;;;;5122698;27;37818;-74
2024/01/25 01:52:21;;;;;;;;;4.50;3.75;;;;;;;;5122023;27;38645;-75
2024/01/25 01:54:47;;;;;;;;;4.25;4.00;;;;;;;;5117555;27;61221;-75
2024/01/25 01:57:12;;;;;;;;;3.00;3.00;;;;;;;;5121921;27;38240;-75
2024/01/25 01:59:38;;;;;;;;;3.75;3.50;;;;;;;;5125448;27;37741;-75
2024/01/25 02:02:03;;;;;;;;;3.00;2.00;;;;;;;;5119013;27;40879;-75
2024/01/25 02:04:28;;;;;;;;;3.50;3.50;;;;;;;;5120803;27;38223;-75
2024/01/25 02:06:53;;;;;;;;;5.75;3.00;;;;;;;;5115398;27;61162;-75
2024/01/25 02:09:19;;;;;;;;;4.00;3.00;;;;;;;;5106870;27;61954;-74
2024/01/25 02:11:44;;;;;;;;;5.25;4.00;;;;;;;;5101818;27;62150;-75
2024/01/25 02:14:11;;;;;;;;;5.75;3.50;;;;;;;;5103645;27;62293;-74
2024/01/25 02:16:37;;;;;;;;;4.00;3.00;;;;;;;;5102197;27;61954;-74
2024/01/25 02:19:03;;;;;;;;;7.00;3.75;;;;;;;;5103974;27;61818;-74
2024/01/25 02:21:28;;;;;;;;;6.00;4.00;;;;;;;;5103407;27;61926;-74
2024/01/25 02:23:53;;;;;;;;;6.00;6.00;;;;;;;;5103277;27;61877;-74
2024/01/25 02:26:18;;;;;;;;;3.00;3.00;;;;;;;;5102659;27;62130;-74
2024/01/25 02:28:43;;;;;;;;;5.50;2.75;;;;;;;;5104132;27;62243;-74
2024/01/25 02:31:09;;;;;;;;;5.75;3.25;;;;;;;;5101739;27;62130;-75
2024/01/25 02:33:34;;;;;;;;;7.00;4.00;;;;;;;;5103855;27;61855;-74
2024/01/25 02:35:59;;;;;;;;;7.50;5.00;;;;;;;;5103837;27;62002;-74
2024/01/25 02:38:24;;;;;;;;;7.75;2.75;;;;;;;;5103282;27;62144;-75
2024/01/25 02:40:50;;;;;;;;;7.25;4.50;;;;;;;;5103275;27;62084;-74
2024/01/25 02:43:15;;;;;;;;;6.00;3.00;;;;;;;;5101873;27;61905;-74
2024/01/25 02:45:40;;;;;;;;;5.25;3.00;;;;;;;;5101947;27;61948;-74
2024/01/25 02:48:05;;;;;;;;;5.75;3.75;;;;;;;;5109903;27;61791;-74
2024/01/25 02:50:31;;;;;;;;;6.50;3.00;;;;;;;;5123427;27;61950;-74
2024/01/25 02:52:56;;;;;;;;;4.25;4.25;;;;;;;;5122567;27;61705;-74
2024/01/25 02:55:22;;;;;;;;;3.25;3.00;;;;;;;;5124110;27;61788;-74
2024/01/25 02:57:47;;;;;;;;;3.00;2.25;;;;;;;;5122743;27;61895;-75
2024/01/25 03:00:13;;;;;;;;;6.50;3.75;;;;;;;;5122531;27;62815;-74
2024/01/25 03:02:38;;;;;;;;;3.50;2.00;;;;;;;;5122315;27;61964;-74
2024/01/25 03:05:04;;;;;;;;;4.00;2.00;;;;;;;;5122631;27;62036;-75
2024/01/25 03:07:29;;;;;;;;;4.75;2.00;;;;;;;;5113395;27;61792;-74
2024/01/25 03:09:54;;;;;;;;;3.25;3.25;;;;;;;;5100609;27;63719;-75
2024/01/25 03:12:19;;;;;;;;;3.00;2.00;;;;;;;;5103013;27;61696;-74
2024/01/25 03:14:45;;;;;;;;;2.00;2.00;;;;;;;;5101751;27;62285;-75
2024/01/25 03:17:12;;;;;;;;;2.25;1.00;;;;;;;;5103450;27;61830;-75
2024/01/25 03:19:37;;;;;;;;;2.00;2.00;;;;;;;;5102429;27;62774;-74
2024/01/25 03:22:02;;;;;;;;;2.75;1.75;;;;;;;;5103270;27;61810;-74
2024/01/25 03:24:28;;;;;;;;;3.00;2.00;;;;;;;;5102372;27;61675;-74
2024/01/25 03:26:53;;;;;;;;;3.75;1.75;;;;;;;;5103051;27;61778;-74
2024/01/25 03:29:18;;;;;;;;;5.25;2.00;;;;;;;;5103402;27;63172;-74
2024/01/25 03:31:43;;;;;;;;;3.00;2.00;;;;;;;;5104011;27;61715;-74
2024/01/25 03:34:11;;;;;;;;;3.50;1.50;;;;;;;;5103286;27;62129;-75
2024/01/25 03:36:38;;;;;;;;;1.00;1.00;;;;;;;;5102666;27;62407;-74
2024/01/25 03:39:03;;;;;;;;;2.75;1.25;;;;;;;;5121945;27;62034;-74
2024/01/25 03:41:29;;;;;;;;;3.75;2.00;;;;;;;;5124814;27;61814;-75
2024/01/25 03:43:54;;;;;;;;;2.25;2.00;;;;;;;;5124196;27;61405;-74
2024/01/25 03:46:19;;;;;;;;;3.00;2.00;;;;;;;;5124177;27;61849;-74
2024/01/25 03:48:44;;;;;;;;;2.00;1.50;;;;;;;;5123796;27;61940;-74
2024/01/25 03:51:10;;;;;;;;;1.50;1.00;;;;;;;;5122544;27;61843;-75
2024/01/25 03:53:35;;;;;;;;;3.00;1.50;;;;;;;;5113413;27;61868;-74
2024/01/25 03:56:00;;;;;;;;;3.75;3.00;;;;;;;;5103025;27;62081;-74
2024/01/25 03:58:25;;;;;;;;;2.00;1.00;;;;;;;;5101529;27;61958;-74
2024/01/25 04:00:51;;;;;;;;;5.50;3.00;;;;;;;;5102000;27;61961;-74
2024/01/25 04:03:16;;;;;;;;;6.00;2.00;;;;;;;;5100907;27;61910;-74
2024/01/25 04:05:41;;;;;;;;;5.00;1.50;;;;;;;;5101321;27;61704;-74
2024/01/25 04:08:06;;;;;;;;;3.75;2.00;;;;;;;;5101330;27;61730;-75
2024/01/25 04:10:32;;;;;;;;;7.00;1.00;;;;;;;;5102533;27;61646;-75
2024/01/25 04:12:58;;;;;;;;;5.50;1.00;;;;;;;;5101992;27;61931;-74
2024/01/25 04:15:23;;;;;;;;;2.25;1.25;;;;;;;;5103894;27;61755;-74
2024/01/25 04:17:48;;;;;;;;;1.50;0.00;;;;;;;;5117535;27;44977;-74
2024/01/25 04:20:14;;;;;;;;;2.50;2.00;;;;;;;;5110658;27;61959;-74
2024/01/25 04:22:39;;;;;;;;;1.50;1.00;;;;;;;;5100072;27;62072;-74
2024/01/25 04:25:05;;;;;;;;;1.75;0.50;;;;;;;;5102296;27;61804;-74
2024/01/25 04:27:30;;;;;;;;;4.00;1.25;;;;;;;;5099914;27;63490;-74
2024/01/25 04:29:55;;;;;;;;;1.50;1.00;;;;;;;;5101381;27;61920;-74
2024/01/25 04:32:21;;;;;;;;;0.00;0.00;;;;;;;;5100347;27;61889;-74
2024/01/25 04:34:47;;;;;;;;;2.25;1.00;;;;;;;;5102696;27;61910;-75
2024/01/25 04:37:13;;;;;;;;;3.25;1.00;;;;;;;;5104964;27;63131;-75
2024/01/25 04:39:38;;;;;;;;;3.00;0.25;;;;;;;;5103864;27;61774;-75
2024/01/25 04:42:03;;;;;;;;;1.00;1.00;;;;;;;;5105244;27;61764;-75
2024/01/25 04:44:28;;;;;;;;;2.00;2.00;;;;;;;;5104267;27;61991;-75
2024/01/25 04:46:54;;;;;;;;;7.75;3.25;;;;;;;;5104772;27;61744;-75
2024/01/25 04:49:19;;;;;;;;;4.00;3.00;;;;;;;;5105402;27;62050;-75
2024/01/25 04:51:45;;;;;;;;;6.75;4.75;;;;;;;;5106069;27;61958;-75
2024/01/25 04:54:12;;;;;;;;;9.00;4.00;;;;;;;;5105254;27;61919;-75
2024/01/25 04:56:38;;;;;;;;;5.75;4.50;;;;;;;;5103004;27;64928;-75
2024/01/25 04:59:03;;;;;;;;;8.50;6.50;;;;;;;;5104834;27;61658;-75
2024/01/25 05:01:28;;;;;;;;;7.50;6.75;;;;;;;;5105073;27;61875;-75
2024/01/25 05:03:53;;;;;;;;;14.00;10.00;;;;;;;;5105000;27;62036;-75
2024/01/25 05:06:18;;;;;;;;;9.00;9.00;;;;;;;;5104737;27;62900;-75
2024/01/25 05:08:44;;;;;;;;;12.00;9.00;;;;;;;;5104843;27;62177;-75
2024/01/25 05:11:09;;;;;;;;;13.00;9.00;;;;;;;;5103225;27;62004;-75
2024/01/25 05:13:34;;;;;;;;;13.75;9.00;;;;;;;;5105212;27;62723;-75
2024/01/25 05:15:59;;;;;;;;;17.00;10.50;;;;;;;;5104195;27;61934;-75
2024/01/25 05:18:29;;;;;;;;;12.00;10.50;;;;;;;;5103703;27;61745;-75
2024/01/25 05:20:55;;;;;;;;;11.50;9.75;;;;;;;;5105224;27;61893;-75
2024/01/25 05:23:21;;;;;;;;;10.00;10.00;;;;;;;;5102219;27;61906;-74
2024/01/25 05:25:46;;;;;;;;;8.50;6.25;;;;;;;;5102437;27;63646;-75
2024/01/25 05:28:11;;;;;;;;;15.00;10.00;;;;;;;;5104458;27;61920;-75
2024/01/25 05:30:36;;;;;;;;;12.75;10.00;;;;;;;;5101806;27;61724;-74
2024/01/25 05:33:02;;;;;;;;;14.00;10.75;;;;;;;;5103164;27;62091;-74
2024/01/25 05:35:27;;;;;;;;;12.25;10.50;;;;;;;;5104136;27;62777;-74
2024/01/25 05:37:52;;;;;;;;;11.25;9.50;;;;;;;;5104006;27;61803;-74
2024/01/25 05:40:18;;;;;;;;;16.50;11.75;;;;;;;;5104317;27;61802;-75
2024/01/25 05:42:43;;;;;;;;;14.50;9.25;;;;;;;;5104248;27;61692;-74
2024/01/25 05:45:09;;;;;;;;;11.75;10.75;;;;;;;;5103496;27;62066;-74
2024/01/25 05:47:34;;;;;;;;;10.50;9.25;;;;;;;;5106682;27;61882;-74
2024/01/25 05:49:59;;;;;;;;;17.25;10.00;;;;;;;;5103195;27;62125;-74
2024/01/25 05:52:25;;;;;;;;;12.00;10.25;;;;;;;;5104332;27;61838;-74
2024/01/25 05:54:50;;;;;;;;;11.50;10.50;;;;;;;;5103288;27;62943;-75
2024/01/25 05:57:17;;;;;;;;;13.75;10.00;;;;;;;;5104011;27;62006;-75
2024/01/25 05:59:42;;;;;;;;;13.50;13.00;;;;;;;;5103473;27;61907;-75
2024/01/25 06:02:08;;;;;;;;;20.25;11.00;;;;;;;;5103328;27;62053;-75
2024/01/25 06:04:33;;;;;;;;;20.75;9.00;;;;;;;;5101143;27;61883;-75
2024/01/25 06:06:58;;;;;;;;;15.00;10.00;;;;;;;;5103145;27;62040;-76
2024/01/25 06:09:27;;;;;;;;;16.00;10.75;;;;;;;;5102025;27;62191;-75
2024/01/25 06:11:52;;;;;;;;;13.00;12.50;;;;;;;;5103311;27;61821;-75
2024/01/25 06:14:17;;;;;;;;;13.25;11.50;;;;;;;;5105404;27;62607;-77
2024/01/25 06:16:43;;;;;;;;;13.75;13.75;;;;;;;;5102833;27;61698;-76
2024/01/25 06:19:08;;;;;;;;;17.50;13.75;;;;;;;;5104333;27;61684;-77
2024/01/25 06:21:35;;;;;;;;;15.00;14.25;;;;;;;;5105921;27;62096;-75
2024/01/25 06:24:01;;;;;;;;;21.00;11.50;;;;;;;;5108389;27;61959;-75
2024/01/25 06:26:26;;;;;;;;;23.25;15.25;;;;;;;;5120258;27;38366;-77
2024/01/25 06:28:51;;;;;;;;;20.00;16.00;;;;;;;;5104495;27;62103;-77
2024/01/25 06:31:16;;;;;;;;;19.50;13.75;;;;;;;;5103169;27;61646;-77
2024/01/25 06:33:41;;;;;;;;;19.50;18.00;;;;;;;;5102809;27;62937;-77
2024/01/25 06:36:07;;;;;;;;;20.25;16.00;;;;;;;;5102355;27;61925;-76
2024/01/25 06:38:32;;;;;;;;;20.00;14.50;;;;;;;;5102800;27;62008;-75
2024/01/25 06:40:57;;;;;;;;;22.00;16.75;;;;;;;;5103903;27;61849;-76
2024/01/25 06:43:22;;;;;;;;;16.75;14.00;;;;;;;;5094446;27;61985;-76
2024/01/25 06:45:48;;;;;;;;;16.00;13.50;;;;;;;;5101416;27;61877;-76
2024/01/25 06:48:13;;;;;;;;;19.50;15.25;;;;;;;;5102944;27;61912;-75
2024/01/25 06:50:38;;;;;;;;;19.50;14.75;;;;;;;;5102352;27;62233;-75
2024/01/25 06:53:05;;;;;;;;;19.25;14.50;;;;;;;;5100332;27;61938;-75
2024/01/25 06:55:30;;;;;;;;;20.75;14.00;;;;;;;;5101812;27;62001;-75
2024/01/25 06:57:57;;;;;;;;;15.50;14.00;;;;;;;;5101426;27;62330;-75
2024/01/25 07:00:23;;;;;;;;;21.50;13.75;;;;;;;;5101376;27;61909;-75
2024/01/25 07:02:48;;;;;;;;;22.75;14.75;;;;;;;;5115688;27;64515;-75
2024/01/25 07:05:13;;;;;;;;;21.25;16.75;;;;;;;;5094619;27;61960;-76
2024/01/25 07:07:39;;;;;;;;;21.00;14.25;;;;;;;;5102939;27;61898;-75
2024/01/25 07:10:06;;;;;;;;;22.00;15.00;;;;;;;;5100689;27;62116;-75
2024/01/25 07:12:31;;;;;;;;;17.50;14.50;;;;;;;;5099841;27;64086;-76
2024/01/25 07:14:56;;;;;;;;;20.00;17.25;;;;;;;;5108234;27;61738;-76
2024/01/25 07:17:21;;;;;;;;;20.75;16.25;;;;;;;;5105762;27;62149;-76
2024/01/25 07:19:47;;;;;;;;;20.75;17.25;;;;;;;;5102945;27;61678;-75
2024/01/25 07:22:14;;;;;;;;;20.50;19.00;;;;;;;;5101830;27;62721;-76
2024/01/25 07:24:39;;;;;;;;;20.50;15.25;;;;;;;;5101383;27;62133;-76
2024/01/25 07:27:04;;;;;;;;;23.00;15.75;;;;;;;;5102188;27;62060;-76
2024/01/25 07:29:29;;;;;;;;;17.25;15.00;;;;;;;;5101850;27;62134;-76
2024/01/25 07:31:54;;;;;;;;;20.75;16.75;;;;;;;;5100804;27;63657;-76
2024/01/25 07:34:20;;;;;;;;;27.50;22.00;;;;;;;;5100034;27;62061;-76
2024/01/25 07:36:45;;;;;;;;;23.75;17.75;;;;;;;;5100379;27;61820;-76
2024/01/25 07:39:11;;;;;;;;;24.25;19.75;;;;;;;;5100415;27;61756;-76
2024/01/25 07:41:36;;;;;;;;;20.00;17.50;;;;;;;;5100130;27;64009;-76
2024/01/25 07:44:02;;;;;;;;;22.50;16.25;;;;;;;;5100236;27;62039;-76
2024/01/25 07:46:27;;;;;;;;;20.75;15.25;;;;;;;;5102192;27;61947;-76
2024/01/25 07:48:52;;;;;;;;;14.50;12.75;;;;;;;;5102532;27;61685;-75
2024/01/25 07:51:17;;;;;;;;;18.00;13.50;;;;;;;;5101407;27;62665;-76
2024/01/25 07:53:43;;;;;;;;;17.00;14.25;;;;;;;;5109236;27;62811;-76
2024/01/25 07:56:09;;;;;;;;;22.00;18.75;;;;;;;;5123231;27;61733;-76
2024/01/25 07:58:35;;;;;;;;;22.75;19.50;;;;;;;;5116173;27;61970;-76
2024/01/25 08:01:02;;;;;;;;;18.50;15.75;;;;;;;;5101068;27;61769;-76
2024/01/25 08:03:27;;;;;;;;;16.25;16.00;;;;;;;;5101633;27;61915;-76
2024/01/25 08:05:52;;;;;;;;;21.00;18.00;;;;;;;;5102502;27;61928;-76
2024/01/25 08:08:18;;;;;;;;;21.75;18.50;;;;;;;;5101925;27;61839;-76
2024/01/25 08:10:45;;;;;;;;;22.75;15.50;;;;;;;;5108046;27;61948;-76
2024/01/25 08:13:10;;;;;;;;;24.00;18.50;;;;;;;;5103968;27;61923;-76
2024/01/25 08:15:36;;;;;;;;;15.75;15.00;;;;;;;;5104527;27;62094;-75
2024/01/25 08:18:01;;;;;;;;;21.00;19.25;;;;;;;;5105042;27;61804;-76
2024/01/25 08:20:26;;;;;;;;;26.50;23.75;;;;;;;;5104569;27;62134;-76
2024/01/25 08:22:51;;;;;;;;;29.00;23.75;;;;;;;;5105276;27;62244;-76
2024/01/25 08:25:17;;;;;;;;;27.25;26.50;;;;;;;;5107988;27;61898;-77
2024/01/25 08:27:42;;;;;;;;;32.75;24.50;;;;;;;;5126483;27;61802;-76
2024/01/25 08:30:07;;;;;;;;;22.75;21.25;;;;;;;;5125148;27;62794;-76
2024/01/25 08:32:33;;;;;;;;;27.25;22.25;;;;;;;;5124204;27;62268;-76
2024/01/25 08:34:58;;;;;;;;;17.50;15.75;;;;;;;;5119980;27;61772;-76
2024/01/25 08:37:23;;;;;;;;;10.75;9.50;;;;;;;;5102334;27;61832;-76
2024/01/25 08:39:50;;;;;;;;;15.50;13.50;;;;;;;;5104178;27;62656;-76
2024/01/25 08:42:16;;;;;;;;;18.00;12.25;;;;;;;;5105539;27;61813;-76
2024/01/25 08:44:48;;;;;;;;;11.00;8.75;;;;;;;;5105159;27;61733;-75
2024/01/25 08:47:13;;;;;;;;;10.50;9.50;;;;;;;;5105225;27;61710;-75
2024/01/25 08:49:39;;;;;;;;;11.00;9.50;;;;;;;;5104838;27;61834;-76
2024/01/25 08:52:05;;;;;;;;;11.75;8.00;;;;;;;;5104110;27;61950;-76
2024/01/25 08:54:30;;;;;;;;;9.00;9.00;;;;;;;;5103178;27;61931;-75
2024/01/25 08:56:56;;;;;;;;;15.00;12.50;;;;;;;;5104005;27;61769;-76
2024/01/25 08:59:21;;;;;;;;;9.50;9.25;;;;;;;;5104378;27;61810;-76
2024/01/25 09:01:46;;;;;;;;;9.75;8.00;;;;;;;;5102916;27;61934;-76
2024/01/25 09:04:12;;;;;;;;;9.50;7.50;;;;;;;;5104710;27;61899;-76
2024/01/25 09:06:37;;;;;;;;;5.75;5.75;;;;;;;;5105540;27;61992;-76
2024/01/25 09:09:03;;;;;;;;;11.25;8.00;;;;;;;;5102562;27;63965;-76
2024/01/25 09:11:28;;;;;;;;;12.50;7.75;;;;;;;;5104944;27;61904;-76
2024/01/25 09:13:53;;;;;;;;;9.75;7.00;;;;;;;;5105000;27;61944;-76
2024/01/25 09:16:19;;;;;;;;;13.50;8.75;;;;;;;;5104740;27;61882;-76
2024/01/25 09:18:45;;;;;;;;;11.50;8.25;;;;;;;;5104569;27;62824;-75
2024/01/25 09:21:10;;;;;;;;;6.00;5.00;;;;;;;;5102822;27;62013;-76
2024/01/25 09:23:35;;;;;;;;;6.75;5.25;;;;;;;;5104473;27;62205;-75
2024/01/25 09:26:00;;;;;;;;;5.00;5.00;;;;;;;;5103565;27;61983;-75
2024/01/25 09:28:25;;;;;;;;;7.75;6.50;;;;;;;;5102567;27;64829;-75
2024/01/25 09:30:51;;;;;;;;;6.50;4.00;;;;;;;;5104126;27;61941;-75
2024/01/25 09:33:16;;;;;;;;;7.25;5.75;;;;;;;;5104457;27;61762;-75
2024/01/25 09:35:41;;;;;;;;;7.50;5.25;;;;;;;;5104655;27;62025;-75
2024/01/25 09:38:07;;;;;;;;;4.75;4.75;;;;;;;;5103949;27;62882;-75
2024/01/25 09:40:33;;;;;;;;;6.50;4.25;;;;;;;;5102948;27;61893;-75
2024/01/25 09:42:58;;;;;;;;;8.50;5.00;;;;;;;;5104703;27;62022;-75
2024/01/25 09:45:23;;;;;;;;;9.00;5.00;;;;;;;;5104353;27;61803;-75
2024/01/25 09:47:49;;;;;;;;;7.00;6.00;;;;;;;;5103806;27;62755;-76
2024/01/25 09:50:14;;;;;;;;;5.00;5.00;;;;;;;;5103149;27;61854;-76
2024/01/25 09:52:43;;;;;;;;;5.25;5.25;;;;;;;;5104436;27;61800;-78
2024/01/25 09:55:13;;;;;;;;;7.00;4.25;;;;;;;;5104551;27;62103;-76
2024/01/25 09:57:41;;;;;;;;;5.00;3.50;;;;;;;;5103192;27;61856;-76
2024/01/25 10:00:11;;;;;;;;;4.00;3.25;;;;;;;;5103448;27;61787;-76
2024/01/25 10:02:36;;;;;;;;;3.00;3.00;;;;;;;;5103909;27;61950;-76
2024/01/25 10:05:02;;;;;;;;;4.00;4.00;;;;;;;;5102927;27;61961;-76
2024/01/25 10:07:37;;;;;;;;;4.00;4.00;;;;;;;;5102131;27;63635;-76
2024/01/25 10:10:04;;;;;;;;;9.00;5.00;;;;;;;;5103577;27;61709;-76
2024/01/25 10:12:30;;;;;;;;;7.50;3.75;;;;;;;;5103710;27;61904;-75
2024/01/25 10:14:55;;;;;;;;;6.25;4.50;;;;;;;;5103098;27;61964;-76
2024/01/25 10:17:21;;;;;;;;;5.00;4.00;;;;;;;;5101698;27;63906;-75
2024/01/25 10:19:46;;;;;;;;;6.25;5.00;;;;;;;;5102961;27;61690;-76
2024/01/25 10:22:12;;;;;;;;;10.00;9.00;;;;;;;;5098818;27;62051;-76
2024/01/25 10:24:38;;;;;;;;;11.75;8.00;;;;;;;;5097160;27;62111;-76
2024/01/25 10:27:04;;;;;;;;;17.00;14.00;;;;;;;;5100889;27;63046;-74
2024/01/25 10:29:29;;;;;;;;;4.50;4.50;;;;;;;;5100893;27;61963;-74
2024/01/25 10:31:54;;;;;;;;;6.00;5.00;;;;;;;;5100892;27;61832;-74
2024/01/25 10:34:20;;;;;;;;;7.25;5.50;;;;;;;;5101188;27;61944;-77
2024/01/25 10:36:45;;;;;;;;;11.00;4.50;;;;;;;;5102408;27;62385;-75
2024/01/25 10:39:12;;;;;;;;;6.25;5.75;;;;;;;;5102697;27;62023;-75
2024/01/25 10:41:39;;;;;;;;;4.00;4.00;;;;;;;;5102957;27;61863;-75
2024/01/25 10:44:06;;;;;;;;;15.00;6.25;;;;;;;;5102675;27;62009;-76
2024/01/25 10:46:32;;;;;;;;;5.75;5.75;;;;;;;;5101095;27;64636;-74
2024/01/25 10:48:57;;;;;;;;;5.75;5.75;;;;;;;;5101537;27;62093;-74
2024/01/25 10:51:23;;;;;;;;;7.75;6.00;;;;;;;;5101795;27;61955;-74
2024/01/25 10:53:49;;;;;;;;;10.00;5.00;;;;;;;;5101104;27;62035;-74
2024/01/25 10:56:14;;;;;;;;;8.00;6.00;;;;;;;;5102672;27;61756;-75
2024/01/25 10:58:43;;;;;;;;;6.25;6.25;;;;;;;;5101283;27;61771;-75
2024/01/25 11:01:10;;;;;;;;;6.75;5.75;;;;;;;;5097794;27;62306;-74
2024/01/25 11:03:36;;;;;;;;;6.75;5.25;;;;;;;;5092737;27;61784;-75
2024/01/25 11:06:11;;;;;;;;;7.00;5.75;;;;;;;;5100696;27;64108;-76
2024/01/25 11:08:38;;;;;;;;;10.75;7.00;;;;;;;;5100922;27;61764;-78
2024/01/25 11:11:10;;;;;;;;;5.75;4.75;;;;;;;;5101900;27;61842;-78
2024/01/25 11:13:38;;;;;;;;;7.25;6.25;;;;;;;;5102254;27;61914;-77
2024/01/25 11:16:13;;;;;;;;;8.00;6.00;;;;;;;;5101729;27;62071;-78
2024/01/25 11:18:52;;;;;;;;;5.25;5.25;;;;;;;;5101089;27;62083;-78
2024/01/25 11:21:38;;;;;;;;;5.50;4.75;;;;;;;;5102468;27;61862;-76
2024/01/25 11:24:03;;;;;;;;;6.00;4.25;;;;;;;;5100548;27;62226;-76
2024/01/25 11:26:29;;;;;;;;;4.50;4.50;;;;;;;;5101395;27;62751;-77
2024/01/25 11:28:55;;;;;;;;;6.00;4.75;;;;;;;;5100858;27;61906;-75
2024/01/25 11:31:22;;;;;;;;;7.50;4.50;;;;;;;;5102048;27;62092;-75
2024/01/25 11:33:47;;;;;;;;;4.75;4.75;;;;;;;;5102176;27;62030;-75
2024/01/25 11:36:12;;;;;;;;;7.00;5.00;;;;;;;;5103109;27;61482;-75
2024/01/25 11:38:38;;;;;;;;;7.00;3.50;;;;;;;;5102677;27;61789;-76
2024/01/25 11:41:03;;;;;;;;;7.00;5.00;;;;;;;;5101971;27;61703;-76
2024/01/25 11:43:29;;;;;;;;;8.00;5.00;;;;;;;;5099901;27;61820;-75
2024/01/25 11:45:54;;;;;;;;;4.50;4.50;;;;;;;;5101776;27;63023;-78
2024/01/25 11:48:21;;;;;;;;;5.25;4.50;;;;;;;;5100742;27;61851;-75
2024/01/25 11:50:46;;;;;;;;;9.75;6.00;;;;;;;;5102390;27;61914;-75
2024/01/25 11:53:12;;;;;;;;;8.00;5.75;;;;;;;;5100417;27;61869;-75
2024/01/25 11:55:37;;;;;;;;;9.50;4.25;;;;;;;;5101395;27;61876;-75
2024/01/25 11:58:02;;;;;;;;;6.75;4.00;;;;;;;;5101772;27;61733;-77
2024/01/25 12:00:28;;;;;;;;;10.00;7.50;;;;;;;;5100023;27;61903;-76
2024/01/25 12:02:54;;;;;;;;;5.00;5.00;;;;;;;;5102185;27;61697;-75
2024/01/25 12:05:19;;;;;;;;;8.50;6.00;;;;;;;;5099931;27;64673;-76
2024/01/25 12:07:44;;;;;;;;;3.50;3.50;;;;;;;;5102238;27;62037;-75
2024/01/25 12:10:14;;;;;;;;;6.50;4.00;;;;;;;;5099507;27;61987;-76
2024/01/25 12:12:40;;;;;;;;;3.25;3.25;;;;;;;;5102160;27;62042;-76
2024/01/25 12:15:05;;;;;;;;;5.00;4.00;;;;;;;;5086507;27;62341;-76
2024/01/25 12:17:31;;;;;;;;;6.00;3.75;;;;;;;;5133928;27;61925;-76
2024/01/25 12:19:57;;;;;;;;;2.75;2.75;;;;;;;;5101775;27;61898;-76
2024/01/25 12:22:22;;;;;;;;;4.00;4.00;;;;;;;;5102085;27;61787;-75
2024/01/25 12:24:48;;;;;;;;;3.75;3.00;;;;;;;;5100646;27;62141;-76
2024/01/25 12:27:15;;;;;;;;;3.50;3.50;;;;;;;;5089305;27;61817;-76
2024/01/25 12:29:40;;;;;;;;;3.00;3.00;;;;;;;;5100736;27;61695;-76
2024/01/25 12:32:05;;;;;;;;;5.25;4.50;;;;;;;;5101303;27;61814;-76
2024/01/25 12:34:30;;;;;;;;;7.50;2.00;;;;;;;;5099113;27;63825;-76
2024/01/25 12:36:56;;;;;;;;;3.75;3.75;;;;;;;;5101652;27;61796;-76
2024/01/25 12:39:21;;;;;;;;;3.75;3.25;;;;;;;;5099285;27;61733;-75
2024/01/25 12:41:46;;;;;;;;;3.25;2.25;;;;;;;;5101547;27;62191;-76
2024/01/25 12:44:11;;;;;;;;;3.50;2.00;;;;;;;;5100814;27;62236;-76
2024/01/25 12:46:37;;;;;;;;;5.75;3.00;;;;;;;;5101630;27;61974;-76
2024/01/25 12:49:03;;;;;;;;;2.00;2.00;;;;;;;;5101975;27;61940;-76
2024/01/25 12:51:29;;;;;;;;;4.75;3.00;;;;;;;;5103616;27;61736;-75
2024/01/25 12:53:54;;;;;;;;;7.00;2.00;;;;;;;;5098551;27;64590;-76
2024/01/25 12:56:19;;;;;;;;;3.25;2.25;;;;;;;;5101555;27;61744;-76
2024/01/25 12:58:44;;;;;;;;;2.00;2.00;;;;;;;;5103701;27;61979;-76
2024/01/25 13:01:10;;;;;;;;;3.25;1.00;;;;;;;;5105020;27;61853;-76
2024/01/25 13:03:35;;;;;;;;;4.00;2.50;;;;;;;;5104101;27;61906;-75
2024/01/25 13:06:03;;;;;;;;;2.00;2.00;;;;;;;;5087864;27;61987;-76
2024/01/25 13:08:28;;;;;;;;;2.75;2.75;;;;;;;;5083903;27;61785;-76
2024/01/25 13:10:53;;;;;;;;;2.00;2.00;;;;;;;;5136982;27;61788;-76
2024/01/25 13:13:18;;;;;;;;;1.50;1.50;;;;;;;;5103186;27;63743;-76
2024/01/25 13:15:43;;;;;;;;;1.00;1.00;;;;;;;;5104491;27;61678;-76
2024/01/25 13:18:09;;;;;;;;;2.00;2.00;;;;;;;;5105010;27;61682;-75
2024/01/25 13:20:34;;;;;;;;;2.00;2.00;;;;;;;;5104986;27;61890;-76
2024/01/25 13:22:59;;;;;;;;;4.00;3.00;;;;;;;;5103936;27;61916;-76
2024/01/25 13:25:25;;;;;;;;;1.00;1.00;;;;;;;;5102423;27;62077;-76
2024/01/25 13:27:51;;;;;;;;;2.00;2.00;;;;;;;;5102911;27;61786;-75
2024/01/25 13:30:17;;;;;;;;;4.25;2.25;;;;;;;;5103044;27;61791;-75
2024/01/25 13:32:42;;;;;;;;;3.00;1.00;;;;;;;;5103306;27;61774;-75
2024/01/25 13:35:08;;;;;;;;;1.75;0.75;;;;;;;;5102956;27;61886;-75
2024/01/25 13:37:33;;;;;;;;;2.00;2.00;;;;;;;;5104286;27;62001;-75
2024/01/25 13:39:58;;;;;;;;;3.00;2.00;;;;;;;;5104391;27;61926;-75
2024/01/25 13:42:23;;;;;;;;;2.25;2.00;;;;;;;;5104140;27;62137;-75
2024/01/25 13:44:49;;;;;;;;;2.00;2.00;;;;;;;;5104116;27;61829;-75
2024/01/25 13:47:14;;;;;;;;;2.25;2.00;;;;;;;;5104761;27;62042;-75
2024/01/25 13:49:39;;;;;;;;;3.25;2.00;;;;;;;;5104458;27;61957;-75
2024/01/25 13:52:04;;;;;;;;;2.00;2.00;;;;;;;;5103501;27;62957;-75
2024/01/25 13:54:30;;;;;;;;;2.00;2.00;;;;;;;;5102220;27;61958;-76
2024/01/25 13:56:55;;;;;;;;;3.00;2.00;;;;;;;;5102472;27;61917;-75
2024/01/25 13:59:21;;;;;;;;;1.75;1.75;;;;;;;;5102602;27;62024;-75
2024/01/25 14:01:46;;;;;;;;;2.00;2.00;;;;;;;;5102539;27;63295;-75
2024/01/25 14:04:12;;;;;;;;;1.00;1.00;;;;;;;;5103322;27;61870;-75
2024/01/25 14:06:37;;;;;;;;;3.50;2.00;;;;;;;;5101719;27;61933;-75
2024/01/25 14:09:02;;;;;;;;;2.25;1.00;;;;;;;;5104063;27;61847;-75
2024/01/25 14:11:28;;;;;;;;;3.00;1.00;;;;;;;;5101483;27;64901;-75
2024/01/25 14:13:53;;;;;;;;;1.00;1.00;;;;;;;;5101926;27;63359;-75
2024/01/25 14:16:18;;;;;;;;;1.00;1.00;;;;;;;;5103551;27;62067;-75
2024/01/25 14:18:46;;;;;;;;;1.75;1.75;;;;;;;;5101865;27;61934;-75
2024/01/25 14:21:11;;;;;;;;;0.50;0.50;;;;;;;;5102473;27;62797;-76
2024/01/25 14:23:36;;;;;;;;;1.00;1.00;;;;;;;;5102468;27;61911;-75
2024/01/25 14:26:02;;;;;;;;;1.25;1.25;;;;;;;;5103482;27;62030;-75